Zyana K — WDI6527 — position and weather

sailwx.info

Track history (hours):
 
Tides and Currents Weather Stations Pressure Air Temp Water Temp Dewpoint Dewpoint Depression Visibility Wind Speed Wind Dir Waves Ship Positions

Zyana K

Owner: G & H Towing Company, Galveston, TX. More information available from US FCC via Universal Licensing System and Coast Guard Vessel Documentation Center.

Last reported at 2018-Feb-20 07:19 UTC. Time now 2018-Feb-20 07:37 UTC.
Position N 29°23' W 094°54'.

Length 24 m; draft 5.4 m.

Type: Tug. MMSI: 367719610.

Date/timePositionNaut miles runAvg speedWind from/ knotsBaromVisibWave heightAir tempDewpointWater temp
2018-Feb-20 07:19N 29°23' W 094°54'1 0.1
2018-Feb-19 17:25N 29°22' W 094°54'0 1.0
2018-Feb-19 16:59N 29°22' W 094°53'1 1.6
2018-Feb-19 16:11N 29°23' W 094°52'1 4.7
2018-Feb-19 16:00N 29°22' W 094°51'3 5.2
2018-Feb-19 15:30N 29°21' W 094°48'3 1.6
2018-Feb-19 13:48N 29°19' W 094°47'0 0.7
2018-Feb-19 13:24N 29°19' W 094°47'0 0.0
2018-Feb-19 12:58N 29°19' W 094°47'0 0.0
2018-Feb-19 10:45N 29°19' W 094°47'0 0.0
2018-Feb-19 09:39N 29°19' W 094°47'0 0.0
2018-Feb-19 09:30N 29°19' W 094°47'0 0.0
2018-Feb-19 09:00N 29°19' W 094°47'0 0.0
2018-Feb-19 08:24N 29°19' W 094°47'0 0.0
2018-Feb-19 08:00N 29°19' W 094°47'0 0.0
2018-Feb-19 07:21N 29°19' W 094°47'0 0.0
2018-Feb-19 07:00N 29°19' W 094°47'0 0.0
2018-Feb-19 05:45N 29°19' W 094°47'0 0.0
2018-Feb-19 05:18N 29°19' W 094°47'0 0.0
2018-Feb-19 05:00N 29°19' W 094°47'0 0.0
2018-Feb-19 04:30N 29°19' W 094°47'5 0.5
2018-Feb-18 18:40N 29°23' W 094°51'310.1
2018-Feb-18 18:23N 29°22' W 094°48'3 0.1
2018-Feb-17 06:13N 29°19' W 094°47'0 0.0
2018-Feb-17 02:52N 29°19' W 094°47'0 0.0
2018-Feb-17 01:34N 29°19' W 094°47'0 0.0
2018-Feb-17 01:25N 29°19' W 094°47'0 0.0
2018-Feb-16 23:34N 29°19' W 094°47'0 0.0
2018-Feb-16 23:13N 29°19' W 094°47'0 0.0
2018-Feb-16 23:01N 29°19' W 094°47'0 0.0
2018-Feb-16 22:29N 29°19' W 094°47'0 0.0
2018-Feb-16 21:53N 29°19' W 094°47'0 0.0
2018-Feb-16 08:09N 29°19' W 094°47'0 0.0
2018-Feb-16 07:57N 29°19' W 094°47'0 0.0
2018-Feb-16 07:30N 29°19' W 094°47'0 0.0
2018-Feb-16 06:48N 29°19' W 094°47'0 0.0
2018-Feb-16 06:30N 29°19' W 094°47'0 0.0
2018-Feb-16 06:00N 29°19' W 094°47'0 0.0
2018-Feb-16 04:54N 29°19' W 094°47'0 0.0
2018-Feb-16 00:42N 29°19' W 094°47'0 0.0
2018-Feb-16 00:08N 29°19' W 094°47'7 0.3
2018-Feb-15 00:34N 29°23' W 094°53'0 2.8
2018-Feb-15 00:29N 29°22' W 094°53'2 1.9
2018-Feb-14 23:19N 29°22' W 094°51'3 6.3
2018-Feb-14 22:53N 29°21' W 094°48'2 5.7
2018-Feb-14 22:29N 29°19' W 094°47'0 0.0
2018-Feb-14 16:36N 29°19' W 094°47'0 0.0
2018-Feb-14 15:46N 29°19' W 094°47'0 0.0
2018-Feb-14 14:34N 29°19' W 094°47'0 0.0
2018-Feb-14 14:20N 29°19' W 094°47'0 0.0
2018-Feb-14 13:53N 29°19' W 094°47'0 0.0
2018-Feb-14 13:25N 29°19' W 094°47'0 0.0
2018-Feb-14 12:54N 29°19' W 094°47'0 0.0
2018-Feb-14 12:01N 29°19' W 094°47'0 0.0
2018-Feb-14 11:25N 29°19' W 094°47'0 0.0
2018-Feb-14 04:42N 29°19' W 094°47'0 0.0
2018-Feb-14 04:18N 29°19' W 094°47'21 0.8
2018-Feb-13 02:07N 29°37' W 095°01'0 0.0
2018-Feb-13 01:58N 29°37' W 095°01'0 0.0
2018-Feb-13 01:28N 29°37' W 095°01'0 0.0
2018-Feb-13 00:58N 29°37' W 095°01'3 5.0
2018-Feb-13 00:21N 29°37' W 094°58'3 9.6
2018-Feb-13 00:01N 29°40' W 094°59'1 0.1
2018-Feb-11 19:53N 29°41' W 094°59'1 1.3
2018-Feb-11 19:02N 29°41' W 095°00'0 1.5
2018-Feb-11 18:59N 29°41' W 095°00'2 4.6
2018-Feb-11 18:30N 29°39' W 094°58'2 3.3
2018-Feb-11 18:01N 29°41' W 094°59'0 0.6
2018-Feb-11 17:22N 29°41' W 094°60'0 0.2
2018-Feb-11 17:00N 29°41' W 094°59'0 0.1
2018-Feb-11 16:30N 29°41' W 094°59'0 0.4
2018-Feb-11 16:00N 29°41' W 094°59'1 1.2
2018-Feb-11 15:03N 29°41' W 095°00'0 1.2
2018-Feb-11 15:00N 29°41' W 095°01'0 0.2
2018-Feb-11 14:30N 29°41' W 095°00'1 2.3
2018-Feb-11 14:00N 29°42' W 095°00'  
Track history (hours):
 
Tides and Currents Weather Stations Pressure Air Temp Water Temp Dewpoint Dewpoint Depression Visibility Wind Speed Wind Dir Waves Ship Positions

Zyana K

Owner: G & H Towing Company, Galveston, TX. More information available from US FCC via Universal Licensing System and Coast Guard Vessel Documentation Center.

Last reported at 2018-Feb-20 07:19 UTC. Time now 2018-Feb-20 07:37 UTC.
Position N 29°23' W 094°54'.

Length 24 m; draft 5.4 m.

Type: Tug. MMSI: 367719610.

Date/timePositionNaut miles runAvg speedWind from/ knotsBaromVisibWave heightAir tempDewpointWater temp
2018-Feb-20 07:19N 29°23' W 094°54'1 0.1
2018-Feb-19 17:25N 29°22' W 094°54'0 1.0
2018-Feb-19 16:59N 29°22' W 094°53'1 1.6
2018-Feb-19 16:11N 29°23' W 094°52'1 4.7
2018-Feb-19 16:00N 29°22' W 094°51'3 5.2
2018-Feb-19 15:30N 29°21' W 094°48'3 1.6
2018-Feb-19 13:48N 29°19' W 094°47'0 0.7
2018-Feb-19 13:24N 29°19' W 094°47'0 0.0
2018-Feb-19 12:58N 29°19' W 094°47'0 0.0
2018-Feb-19 10:45N 29°19' W 094°47'0 0.0
2018-Feb-19 09:39N 29°19' W 094°47'0 0.0
2018-Feb-19 09:30N 29°19' W 094°47'0 0.0
2018-Feb-19 09:00N 29°19' W 094°47'0 0.0
2018-Feb-19 08:24N 29°19' W 094°47'0 0.0
2018-Feb-19 08:00N 29°19' W 094°47'0 0.0
2018-Feb-19 07:21N 29°19' W 094°47'0 0.0
2018-Feb-19 07:00N 29°19' W 094°47'0 0.0
2018-Feb-19 05:45N 29°19' W 094°47'0 0.0
2018-Feb-19 05:18N 29°19' W 094°47'0 0.0
2018-Feb-19 05:00N 29°19' W 094°47'0 0.0
2018-Feb-19 04:30N 29°19' W 094°47'5 0.5
2018-Feb-18 18:40N 29°23' W 094°51'310.1
2018-Feb-18 18:23N 29°22' W 094°48'3 0.1
2018-Feb-17 06:13N 29°19' W 094°47'0 0.0
2018-Feb-17 02:52N 29°19' W 094°47'0 0.0
2018-Feb-17 01:34N 29°19' W 094°47'0 0.0
2018-Feb-17 01:25N 29°19' W 094°47'0 0.0
2018-Feb-16 23:34N 29°19' W 094°47'0 0.0
2018-Feb-16 23:13N 29°19' W 094°47'0 0.0
2018-Feb-16 23:01N 29°19' W 094°47'0 0.0
2018-Feb-16 22:29N 29°19' W 094°47'0 0.0
2018-Feb-16 21:53N 29°19' W 094°47'0 0.0
2018-Feb-16 08:09N 29°19' W 094°47'0 0.0
2018-Feb-16 07:57N 29°19' W 094°47'0 0.0
2018-Feb-16 07:30N 29°19' W 094°47'0 0.0
2018-Feb-16 06:48N 29°19' W 094°47'0 0.0
2018-Feb-16 06:30N 29°19' W 094°47'0 0.0
2018-Feb-16 06:00N 29°19' W 094°47'0 0.0
2018-Feb-16 04:54N 29°19' W 094°47'0 0.0
2018-Feb-16 00:42N 29°19' W 094°47'0 0.0
2018-Feb-16 00:08N 29°19' W 094°47'7 0.3
2018-Feb-15 00:34N 29°23' W 094°53'0 2.8
2018-Feb-15 00:29N 29°22' W 094°53'2 1.9
2018-Feb-14 23:19N 29°22' W 094°51'3 6.3
2018-Feb-14 22:53N 29°21' W 094°48'2 5.7
2018-Feb-14 22:29N 29°19' W 094°47'0 0.0
2018-Feb-14 16:36N 29°19' W 094°47'0 0.0
2018-Feb-14 15:46N 29°19' W 094°47'0 0.0
2018-Feb-14 14:34N 29°19' W 094°47'0 0.0
2018-Feb-14 14:20N 29°19' W 094°47'0 0.0
2018-Feb-14 13:53N 29°19' W 094°47'0 0.0
2018-Feb-14 13:25N 29°19' W 094°47'0 0.0
2018-Feb-14 12:54N 29°19' W 094°47'0 0.0
2018-Feb-14 12:01N 29°19' W 094°47'0 0.0
2018-Feb-14 11:25N 29°19' W 094°47'0 0.0
2018-Feb-14 04:42N 29°19' W 094°47'0 0.0
2018-Feb-14 04:18N 29°19' W 094°47'21 0.8
2018-Feb-13 02:07N 29°37' W 095°01'0 0.0
2018-Feb-13 01:58N 29°37' W 095°01'0 0.0
2018-Feb-13 01:28N 29°37' W 095°01'0 0.0
2018-Feb-13 00:58N 29°37' W 095°01'3 5.0
2018-Feb-13 00:21N 29°37' W 094°58'3 9.6
2018-Feb-13 00:01N 29°40' W 094°59'1 0.1
2018-Feb-11 19:53N 29°41' W 094°59'1 1.3
2018-Feb-11 19:02N 29°41' W 095°00'0 1.5
2018-Feb-11 18:59N 29°41' W 095°00'2 4.6
2018-Feb-11 18:30N 29°39' W 094°58'2 3.3
2018-Feb-11 18:01N 29°41' W 094°59'0 0.6
2018-Feb-11 17:22N 29°41' W 094°60'0 0.2
2018-Feb-11 17:00N 29°41' W 094°59'0 0.1
2018-Feb-11 16:30N 29°41' W 094°59'0 0.4
2018-Feb-11 16:00N 29°41' W 094°59'1 1.2
2018-Feb-11 15:03N 29°41' W 095°00'0 1.2
2018-Feb-11 15:00N 29°41' W 095°01'0 0.2
2018-Feb-11 14:30N 29°41' W 095°00'1 2.3
2018-Feb-11 14:00N 29°42' W 095°00'  

Dump ship's entire track history